PILOTS ONLINE: 436    ATC ONLINE: 50

KTRM

Jacqueline Cochran Regional Airport

Location

City Palm Springs
Country  United States
Latitude 33° 37' 36" N
Longitude 116° 9' 36" W
Elevation -115 ft
Type Medium Airport

Map

Weather

METAR
2014/08/23 10:52
KTRM 231052Z AUTO 32008KT 10SM CLR 27/M01 A2979 RMK AO2 SLP091 T02721011 TSNO
TAF
2014/08/23 06:21
KTRM 230520Z 2306/2406 33008KT P6SM SKC 
     FM230900 VRB05KT P6SM SKC 
     FM232000 14007KT P6SM SKC 
     FM240400 33008KT P6SM SKC

Runways

12/30 4995 ft / 100 ft
17/35 8500 ft / 150 ft

Outbound flights

Callsign Flying to Pilot ATD/STD ETA Aircraft

Inbound flights

Callsign Flying from Pilot ATD ETA Aircraft